sensor_id;sensor_type;location;lat;lon;timestamp;temperature;humidity
34829;DHT22;21042;47.620;12.188;2023-02-28T00:00:37;-1.50;99.90
34829;DHT22;21042;47.620;12.188;2023-02-28T00:03:04;-1.60;99.90
34829;DHT22;21042;47.620;12.188;2023-02-28T00:05:31;-1.60;99.90
34829;DHT22;21042;47.620;12.188;2023-02-28T00:07:57;-1.70;99.90
34829;DHT22;21042;47.620;12.188;2023-02-28T00:10:27;-1.70;99.90
34829;DHT22;21042;47.620;12.188;2023-02-28T00:12:59;-1.80;99.90
34829;DHT22;21042;47.620;12.188;2023-02-28T00:15:26;-1.80;99.90
34829;DHT22;21042;47.620;12.188;2023-02-28T00:17:52;-1.80;99.90
34829;DHT22;21042;47.620;12.188;2023-02-28T00:20:19;-1.70;99.90
34829;DHT22;21042;47.620;12.188;2023-02-28T00:22:49;-1.70;99.90
34829;DHT22;21042;47.620;12.188;2023-02-28T00:25:18;-1.70;99.90
34829;DHT22;21042;47.620;12.188;2023-02-28T00:27:46;-1.70;99.90
34829;DHT22;21042;47.620;12.188;2023-02-28T00:30:21;-1.70;99.90
34829;DHT22;21042;47.620;12.188;2023-02-28T00:32:49;-1.70;99.90
34829;DHT22;21042;47.620;12.188;2023-02-28T00:35:16;-1.80;99.90
34829;DHT22;21042;47.620;12.188;2023-02-28T00:37:43;-1.80;99.90
34829;DHT22;21042;47.620;12.188;2023-02-28T00:40:10;-1.80;99.90
34829;DHT22;21042;47.620;12.188;2023-02-28T00:42:39;-1.90;99.90
34829;DHT22;21042;47.620;12.188;2023-02-28T00:45:07;-1.90;99.90
34829;DHT22;21042;47.620;12.188;2023-02-28T00:47:37;-2.00;99.90
34829;DHT22;21042;47.620;12.188;2023-02-28T00:50:04;-2.00;99.90
34829;DHT22;21042;47.620;12.188;2023-02-28T00:52:31;-2.10;99.90
34829;DHT22;21042;47.620;12.188;2023-02-28T00:54:58;-2.10;99.90
34829;DHT22;21042;47.620;12.188;2023-02-28T00:57:25;-2.20;99.90
34829;DHT22;21042;47.620;12.188;2023-02-28T00:59:52;-2.20;99.90
34829;DHT22;21042;47.620;12.188;2023-02-28T01:02:22;-2.30;99.90
34829;DHT22;21042;47.620;12.188;2023-02-28T01:04:51;-2.40;99.90
34829;DHT22;21042;47.620;12.188;2023-02-28T01:07:18;-2.50;99.90
34829;DHT22;21042;47.620;12.188;2023-02-28T01:09:45;-2.60;99.90
34829;DHT22;21042;47.620;12.188;2023-02-28T01:12:12;-2.70;99.90
34829;DHT22;21042;47.620;12.188;2023-02-28T01:14:39;-2.70;99.90
34829;DHT22;21042;47.620;12.188;2023-02-28T01:17:06;-2.70;99.90
34829;DHT22;21042;47.620;12.188;2023-02-28T01:19:33;-2.70;99.90
34829;DHT22;21042;47.620;12.188;2023-02-28T01:22:02;-2.70;99.90
34829;DHT22;21042;47.620;12.188;2023-02-28T01:24:29;-2.60;99.90
34829;DHT22;21042;47.620;12.188;2023-02-28T01:26:56;-2.60;99.90
34829;DHT22;21042;47.620;12.188;2023-02-28T01:29:22;-2.60;99.90
34829;DHT22;21042;47.620;12.188;2023-02-28T01:31:51;-2.60;99.90
34829;DHT22;21042;47.620;12.188;2023-02-28T01:34:19;-2.60;99.90
34829;DHT22;21042;47.620;12.188;2023-02-28T01:36:46;-2.60;99.90
34829;DHT22;21042;47.620;12.188;2023-02-28T01:39:13;-2.60;99.90
34829;DHT22;21042;47.620;12.188;2023-02-28T01:41:40;-2.60;99.90
34829;DHT22;21042;47.620;12.188;2023-02-28T01:47:12;-2.70;99.90
34829;DHT22;21042;47.620;12.188;2023-02-28T01:49:39;-2.70;99.90
34829;DHT22;21042;47.620;12.188;2023-02-28T01:52:07;-2.60;99.90
34829;DHT22;21042;47.620;12.188;2023-02-28T01:54:35;-2.60;99.90
34829;DHT22;21042;47.620;12.188;2023-02-28T01:57:10;-2.60;99.90
34829;DHT22;21042;47.620;12.188;2023-02-28T01:59:43;-2.70;99.90
34829;DHT22;21042;47.620;12.188;2023-02-28T02:02:13;-2.70;99.90
34829;DHT22;21042;47.620;12.188;2023-02-28T02:04:51;-2.70;99.90
34829;DHT22;21042;47.620;12.188;2023-02-28T02:07:18;-2.70;99.90
34829;DHT22;21042;47.620;12.188;2023-02-28T02:09:45;-2.70;99.90
34829;DHT22;21042;47.620;12.188;2023-02-28T02:15:31;-2.70;99.90
34829;DHT22;21042;47.620;12.188;2023-02-28T02:18:08;-2.80;99.90
34829;DHT22;21042;47.620;12.188;2023-02-28T02:25:58;-3.00;99.90
34829;DHT22;21042;47.620;12.188;2023-02-28T02:29:06;-3.00;99.90
34829;DHT22;21042;47.620;12.188;2023-02-28T02:40:30;-3.10;99.90
34829;DHT22;21042;47.620;12.188;2023-02-28T02:43:15;-3.10;99.90
34829;DHT22;21042;47.620;12.188;2023-02-28T02:46:04;-3.20;99.90
34829;DHT22;21042;47.620;12.188;2023-02-28T02:48:34;-3.30;99.90
34829;DHT22;21042;47.620;12.188;2023-02-28T02:51:07;-3.30;99.90
34829;DHT22;21042;47.620;12.188;2023-02-28T02:53:53;-3.30;99.90
34829;DHT22;21042;47.620;12.188;2023-02-28T02:56:26;-3.20;99.90
34829;DHT22;21042;47.620;12.188;2023-02-28T02:58:55;-3.20;99.90
34829;DHT22;21042;47.620;12.188;2023-02-28T03:01:24;-3.20;99.90
34829;DHT22;21042;47.620;12.188;2023-02-28T03:04:06;-3.30;99.90
34829;DHT22;21042;47.620;12.188;2023-02-28T03:06:33;-3.30;99.90
34829;DHT22;21042;47.620;12.188;2023-02-28T03:09:02;-3.30;99.90
34829;DHT22;21042;47.620;12.188;2023-02-28T03:11:28;-3.40;99.90
34829;DHT22;21042;47.620;12.188;2023-02-28T03:16:49;-3.50;99.90
34829;DHT22;21042;47.620;12.188;2023-02-28T03:25:56;-3.50;99.90
34829;DHT22;21042;47.620;12.188;2023-02-28T03:28:37;-3.60;99.90
34829;DHT22;21042;47.620;12.188;2023-02-28T03:34:04;-3.60;99.90
34829;DHT22;21042;47.620;12.188;2023-02-28T03:36:37;-3.60;99.90
34829;DHT22;21042;47.620;12.188;2023-02-28T03:39:16;-3.60;99.90
34829;DHT22;21042;47.620;12.188;2023-02-28T03:41:52;-3.60;99.90
34829;DHT22;21042;47.620;12.188;2023-02-28T03:44:29;-3.60;99.90
34829;DHT22;21042;47.620;12.188;2023-02-28T03:47:16;-3.50;99.90
34829;DHT22;21042;47.620;12.188;2023-02-28T03:49:52;-3.60;99.90
34829;DHT22;21042;47.620;12.188;2023-02-28T03:52:23;-3.60;99.90
34829;DHT22;21042;47.620;12.188;2023-02-28T03:54:54;-3.60;99.90
34829;DHT22;21042;47.620;12.188;2023-02-28T03:57:40;-3.60;99.90
34829;DHT22;21042;47.620;12.188;2023-02-28T04:00:20;-3.60;99.90
34829;DHT22;21042;47.620;12.188;2023-02-28T04:02:47;-3.60;99.90
34829;DHT22;21042;47.620;12.188;2023-02-28T04:05:22;-3.60;99.90
34829;DHT22;21042;47.620;12.188;2023-02-28T04:07:49;-3.70;99.90
34829;DHT22;21042;47.620;12.188;2023-02-28T04:10:16;-3.70;99.90
34829;DHT22;21042;47.620;12.188;2023-02-28T04:12:43;-3.60;99.90
34829;DHT22;21042;47.620;12.188;2023-02-28T04:15:10;-3.70;99.90
34829;DHT22;21042;47.620;12.188;2023-02-28T04:17:37;-3.80;99.90
34829;DHT22;21042;47.620;12.188;2023-02-28T04:20:04;-3.90;99.90
34829;DHT22;21042;47.620;12.188;2023-02-28T04:22:36;-3.90;99.90
34829;DHT22;21042;47.620;12.188;2023-02-28T04:25:04;-3.90;99.90
34829;DHT22;21042;47.620;12.188;2023-02-28T04:27:32;-3.90;99.90
34829;DHT22;21042;47.620;12.188;2023-02-28T04:29:59;-3.80;99.90
34829;DHT22;21042;47.620;12.188;2023-02-28T04:32:25;-3.80;99.90
34829;DHT22;21042;47.620;12.188;2023-02-28T04:34:52;-3.80;99.90
34829;DHT22;21042;47.620;12.188;2023-02-28T04:37:20;-3.90;99.90
34829;DHT22;21042;47.620;12.188;2023-02-28T04:39:46;-3.90;99.90
34829;DHT22;21042;47.620;12.188;2023-02-28T04:42:13;-3.90;99.90
34829;DHT22;21042;47.620;12.188;2023-02-28T04:44:41;-3.90;99.90
34829;DHT22;21042;47.620;12.188;2023-02-28T04:47:08;-3.90;99.90
34829;DHT22;21042;47.620;12.188;2023-02-28T04:49:35;-4.00;99.90
34829;DHT22;21042;47.620;12.188;2023-02-28T04:52:02;-4.00;99.90
34829;DHT22;21042;47.620;12.188;2023-02-28T04:54:28;-4.10;99.90
34829;DHT22;21042;47.620;12.188;2023-02-28T04:56:55;-4.00;99.90
34829;DHT22;21042;47.620;12.188;2023-02-28T04:59:22;-4.10;99.90
34829;DHT22;21042;47.620;12.188;2023-02-28T05:01:49;-4.00;99.90
34829;DHT22;21042;47.620;12.188;2023-02-28T05:04:16;-4.00;99.90
34829;DHT22;21042;47.620;12.188;2023-02-28T05:06:43;-4.00;99.90
34829;DHT22;21042;47.620;12.188;2023-02-28T05:09:10;-4.10;99.90
34829;DHT22;21042;47.620;12.188;2023-02-28T05:11:38;-4.10;99.90
34829;DHT22;21042;47.620;12.188;2023-02-28T05:14:11;-4.10;99.90
34829;DHT22;21042;47.620;12.188;2023-02-28T05:16:38;-4.10;99.90
34829;DHT22;21042;47.620;12.188;2023-02-28T05:19:05;-4.10;99.90
34829;DHT22;21042;47.620;12.188;2023-02-28T05:21:33;-4.20;99.90
34829;DHT22;21042;47.620;12.188;2023-02-28T05:24:03;-4.20;99.90
34829;DHT22;21042;47.620;12.188;2023-02-28T05:26:31;-4.20;99.90
34829;DHT22;21042;47.620;12.188;2023-02-28T05:28:57;-4.20;99.90
34829;DHT22;21042;47.620;12.188;2023-02-28T05:31:24;-4.30;99.90
34829;DHT22;21042;47.620;12.188;2023-02-28T05:33:51;-4.30;99.90
34829;DHT22;21042;47.620;12.188;2023-02-28T05:36:19;-4.30;99.90
34829;DHT22;21042;47.620;12.188;2023-02-28T05:38:47;-4.30;99.90
34829;DHT22;21042;47.620;12.188;2023-02-28T05:41:15;-4.30;99.90
34829;DHT22;21042;47.620;12.188;2023-02-28T05:43:42;-4.30;99.90
34829;DHT22;21042;47.620;12.188;2023-02-28T05:46:10;-4.30;99.90
34829;DHT22;21042;47.620;12.188;2023-02-28T05:48:38;-4.20;99.90
34829;DHT22;21042;47.620;12.188;2023-02-28T05:51:06;-4.20;99.90
34829;DHT22;21042;47.620;12.188;2023-02-28T05:53:34;-4.20;99.90
34829;DHT22;21042;47.620;12.188;2023-02-28T05:56:01;-4.30;99.90
34829;DHT22;21042;47.620;12.188;2023-02-28T05:58:28;-4.30;99.90
34829;DHT22;21042;47.620;12.188;2023-02-28T06:01:00;-4.30;99.90
34829;DHT22;21042;47.620;12.188;2023-02-28T06:03:44;-4.30;99.90
34829;DHT22;21042;47.620;12.188;2023-02-28T06:06:11;-4.30;99.90
34829;DHT22;21042;47.620;12.188;2023-02-28T06:08:38;-4.20;99.90
34829;DHT22;21042;47.620;12.188;2023-02-28T06:11:05;-4.20;99.90
34829;DHT22;21042;47.620;12.188;2023-02-28T06:13:33;-4.30;99.90
34829;DHT22;21042;47.620;12.188;2023-02-28T06:16:02;-4.30;99.90
34829;DHT22;21042;47.620;12.188;2023-02-28T06:18:29;-4.30;99.90
34829;DHT22;21042;47.620;12.188;2023-02-28T06:20:56;-4.30;99.90
34829;DHT22;21042;47.620;12.188;2023-02-28T06:23:24;-4.30;99.90
34829;DHT22;21042;47.620;12.188;2023-02-28T06:25:51;-4.40;99.90
34829;DHT22;21042;47.620;12.188;2023-02-28T06:28:19;-4.50;99.90
34829;DHT22;21042;47.620;12.188;2023-02-28T06:30:46;-4.50;99.90
34829;DHT22;21042;47.620;12.188;2023-02-28T06:33:12;-4.50;99.90
34829;DHT22;21042;47.620;12.188;2023-02-28T06:35:39;-4.50;99.90
34829;DHT22;21042;47.620;12.188;2023-02-28T06:38:06;-4.50;99.90
34829;DHT22;21042;47.620;12.188;2023-02-28T06:40:33;-4.40;99.90
34829;DHT22;21042;47.620;12.188;2023-02-28T06:43:02;-4.50;99.90
34829;DHT22;21042;47.620;12.188;2023-02-28T06:45:29;-4.50;99.90
34829;DHT22;21042;47.620;12.188;2023-02-28T06:47:55;-4.50;99.90
34829;DHT22;21042;47.620;12.188;2023-02-28T06:50:22;-3.60;99.90
34829;DHT22;21042;47.620;12.188;2023-02-28T06:52:49;-4.40;99.90
34829;DHT22;21042;47.620;12.188;2023-02-28T06:55:20;-4.40;99.90
34829;DHT22;21042;47.620;12.188;2023-02-28T06:57:47;-4.30;99.90
34829;DHT22;21042;47.620;12.188;2023-02-28T07:00:14;-4.30;99.90
34829;DHT22;21042;47.620;12.188;2023-02-28T07:02:41;-4.30;99.90
34829;DHT22;21042;47.620;12.188;2023-02-28T07:05:08;-4.30;99.90
34829;DHT22;21042;47.620;12.188;2023-02-28T07:07:35;-4.30;99.90
34829;DHT22;21042;47.620;12.188;2023-02-28T07:10:02;-4.30;99.90
34829;DHT22;21042;47.620;12.188;2023-02-28T07:12:29;-4.30;99.90
34829;DHT22;21042;47.620;12.188;2023-02-28T07:14:56;-4.10;99.90
34829;DHT22;21042;47.620;12.188;2023-02-28T07:17:23;-4.00;99.90
34829;DHT22;21042;47.620;12.188;2023-02-28T07:19:50;-3.90;99.90
34829;DHT22;21042;47.620;12.188;2023-02-28T07:22:16;-3.90;99.90
34829;DHT22;21042;47.620;12.188;2023-02-28T07:24:43;-3.80;99.90
34829;DHT22;21042;47.620;12.188;2023-02-28T07:27:10;-3.70;99.90
34829;DHT22;21042;47.620;12.188;2023-02-28T07:29:36;-3.70;99.90
34829;DHT22;21042;47.620;12.188;2023-02-28T07:32:04;-3.60;99.90
34829;DHT22;21042;47.620;12.188;2023-02-28T07:34:31;-3.60;99.90
34829;DHT22;21042;47.620;12.188;2023-02-28T07:36:58;-3.50;99.90
34829;DHT22;21042;47.620;12.188;2023-02-28T07:39:24;-3.40;99.90
34829;DHT22;21042;47.620;12.188;2023-02-28T07:41:51;-3.40;99.90
34829;DHT22;21042;47.620;12.188;2023-02-28T07:44:18;-3.30;99.90
34829;DHT22;21042;47.620;12.188;2023-02-28T07:46:45;-3.30;99.90
34829;DHT22;21042;47.620;12.188;2023-02-28T07:49:11;-3.20;99.90
34829;DHT22;21042;47.620;12.188;2023-02-28T07:51:38;-3.10;99.90
34829;DHT22;21042;47.620;12.188;2023-02-28T07:54:05;-3.10;99.90
34829;DHT22;21042;47.620;12.188;2023-02-28T07:56:32;-3.00;99.90
34829;DHT22;21042;47.620;12.188;2023-02-28T07:58:59;-2.90;99.90
34829;DHT22;21042;47.620;12.188;2023-02-28T08:01:26;-2.80;99.90
34829;DHT22;21042;47.620;12.188;2023-02-28T08:03:52;-2.70;99.90
34829;DHT22;21042;47.620;12.188;2023-02-28T08:06:22;-2.70;99.90
34829;DHT22;21042;47.620;12.188;2023-02-28T08:08:50;-2.60;99.90
34829;DHT22;21042;47.620;12.188;2023-02-28T08:11:17;-2.60;99.90
34829;DHT22;21042;47.620;12.188;2023-02-28T08:13:45;-2.50;99.90
34829;DHT22;21042;47.620;12.188;2023-02-28T08:16:12;-2.40;99.90
34829;DHT22;21042;47.620;12.188;2023-02-28T08:18:53;-2.30;99.90
34829;DHT22;21042;47.620;12.188;2023-02-28T08:21:20;-2.20;99.90
34829;DHT22;21042;47.620;12.188;2023-02-28T08:23:49;-2.10;99.90
34829;DHT22;21042;47.620;12.188;2023-02-28T08:26:17;-2.00;99.90
34829;DHT22;21042;47.620;12.188;2023-02-28T08:28:44;-1.90;99.90
34829;DHT22;21042;47.620;12.188;2023-02-28T08:31:12;-1.80;99.90
34829;DHT22;21042;47.620;12.188;2023-02-28T08:33:40;-1.80;99.90
34829;DHT22;21042;47.620;12.188;2023-02-28T08:36:08;-1.70;99.90
34829;DHT22;21042;47.620;12.188;2023-02-28T08:38:35;-1.60;99.90
34829;DHT22;21042;47.620;12.188;2023-02-28T08:41:06;-1.60;99.90
34829;DHT22;21042;47.620;12.188;2023-02-28T08:43:34;-1.60;99.90
34829;DHT22;21042;47.620;12.188;2023-02-28T08:46:02;-1.50;99.90
34829;DHT22;21042;47.620;12.188;2023-02-28T08:48:31;-1.40;99.90
34829;DHT22;21042;47.620;12.188;2023-02-28T08:51:21;-1.30;99.90
34829;DHT22;21042;47.620;12.188;2023-02-28T08:53:54;-1.20;99.90
34829;DHT22;21042;47.620;12.188;2023-02-28T08:56:22;-1.10;99.90
34829;DHT22;21042;47.620;12.188;2023-02-28T08:58:50;-1.00;99.90
34829;DHT22;21042;47.620;12.188;2023-02-28T09:01:19;-0.90;99.90
34829;DHT22;21042;47.620;12.188;2023-02-28T09:03:48;-0.90;99.90
34829;DHT22;21042;47.620;12.188;2023-02-28T09:06:17;-0.70;99.90
34829;DHT22;21042;47.620;12.188;2023-02-28T09:08:45;-0.70;99.90
34829;DHT22;21042;47.620;12.188;2023-02-28T09:11:12;-0.70;99.90
34829;DHT22;21042;47.620;12.188;2023-02-28T09:13:39;-0.50;99.90
34829;DHT22;21042;47.620;12.188;2023-02-28T09:16:09;-0.50;99.90
34829;DHT22;21042;47.620;12.188;2023-02-28T09:18:37;-0.40;99.90
34829;DHT22;21042;47.620;12.188;2023-02-28T09:21:06;-0.20;99.90
34829;DHT22;21042;47.620;12.188;2023-02-28T09:23:33;-0.20;99.90
34829;DHT22;21042;47.620;12.188;2023-02-28T09:26:00;-0.10;99.90
34829;DHT22;21042;47.620;12.188;2023-02-28T09:28:27;-0.20;99.90
34829;DHT22;21042;47.620;12.188;2023-02-28T09:30:54;-0.30;99.90
34829;DHT22;21042;47.620;12.188;2023-02-28T09:33:21;-0.30;99.90
34829;DHT22;21042;47.620;12.188;2023-02-28T09:35:49;-0.40;99.90
34829;DHT22;21042;47.620;12.188;2023-02-28T09:38:17;-0.30;99.90
34829;DHT22;21042;47.620;12.188;2023-02-28T09:40:50;-0.20;99.90
34829;DHT22;21042;47.620;12.188;2023-02-28T09:43:21;-0.10;99.90
34829;DHT22;21042;47.620;12.188;2023-02-28T09:46:00;-0.10;99.90
34829;DHT22;21042;47.620;12.188;2023-02-28T09:48:35;-0.10;99.90
34829;DHT22;21042;47.620;12.188;2023-02-28T09:51:30;-0.10;99.90
34829;DHT22;21042;47.620;12.188;2023-02-28T09:53:59;-0.20;99.90
34829;DHT22;21042;47.620;12.188;2023-02-28T09:56:34;-0.20;99.90
34829;DHT22;21042;47.620;12.188;2023-02-28T09:59:18;-0.20;99.90
34829;DHT22;21042;47.620;12.188;2023-02-28T10:07:45;0.30;99.90
34829;DHT22;21042;47.620;12.188;2023-02-28T10:10:21;0.20;99.90
34829;DHT22;21042;47.620;12.188;2023-02-28T10:12:51;0.20;99.90
34829;DHT22;21042;47.620;12.188;2023-02-28T10:15:21;0.20;99.90
34829;DHT22;21042;47.620;12.188;2023-02-28T10:17:54;0.10;99.90
34829;DHT22;21042;47.620;12.188;2023-02-28T10:20:39;0.20;99.90
34829;DHT22;21042;47.620;12.188;2023-02-28T10:23:21;0.20;99.90
34829;DHT22;21042;47.620;12.188;2023-02-28T10:26:01;0.20;99.90
34829;DHT22;21042;47.620;12.188;2023-02-28T10:28:29;0.20;99.90
34829;DHT22;21042;47.620;12.188;2023-02-28T10:30:58;0.20;99.90
34829;DHT22;21042;47.620;12.188;2023-02-28T10:33:30;0.30;99.90
34829;DHT22;21042;47.620;12.188;2023-02-28T10:35:57;0.40;99.90
34829;DHT22;21042;47.620;12.188;2023-02-28T10:38:32;0.50;99.90
34829;DHT22;21042;47.620;12.188;2023-02-28T10:44:20;0.50;99.90
34829;DHT22;21042;47.620;12.188;2023-02-28T10:46:48;0.60;99.90
34829;DHT22;21042;47.620;12.188;2023-02-28T10:49:27;0.70;99.90
34829;DHT22;21042;47.620;12.188;2023-02-28T10:51:57;0.70;99.90
34829;DHT22;21042;47.620;12.188;2023-02-28T10:54:32;0.80;99.90
34829;DHT22;21042;47.620;12.188;2023-02-28T10:59:37;0.90;99.90
34829;DHT22;21042;47.620;12.188;2023-02-28T11:02:36;1.00;99.90
34829;DHT22;21042;47.620;12.188;2023-02-28T11:08:05;1.00;99.90
34829;DHT22;21042;47.620;12.188;2023-02-28T11:10:33;1.10;99.90
34829;DHT22;21042;47.620;12.188;2023-02-28T11:13:02;1.10;99.90
34829;DHT22;21042;47.620;12.188;2023-02-28T11:15:32;1.00;99.90
34829;DHT22;21042;47.620;12.188;2023-02-28T11:18:14;1.00;99.90
34829;DHT22;21042;47.620;12.188;2023-02-28T11:20:49;1.10;99.90
34829;DHT22;21042;47.620;12.188;2023-02-28T11:23:18;1.10;99.90
34829;DHT22;21042;47.620;12.188;2023-02-28T11:25:51;1.20;99.90
34829;DHT22;21042;47.620;12.188;2023-02-28T11:31:21;1.30;99.90
34829;DHT22;21042;47.620;12.188;2023-02-28T11:33:51;1.30;99.90
34829;DHT22;21042;47.620;12.188;2023-02-28T11:36:21;1.40;99.90
34829;DHT22;21042;47.620;12.188;2023-02-28T11:38:52;1.40;99.90
34829;DHT22;21042;47.620;12.188;2023-02-28T11:47:17;1.50;99.90
34829;DHT22;21042;47.620;12.188;2023-02-28T11:49:58;1.50;99.90
34829;DHT22;21042;47.620;12.188;2023-02-28T11:56:48;1.20;99.90
34829;DHT22;21042;47.620;12.188;2023-02-28T11:59:57;1.30;99.90
34829;DHT22;21042;47.620;12.188;2023-02-28T12:05:17;1.30;99.90
34829;DHT22;21042;47.620;12.188;2023-02-28T12:07:59;1.20;99.90
34829;DHT22;21042;47.620;12.188;2023-02-28T12:10:42;1.20;99.90
34829;DHT22;21042;47.620;12.188;2023-02-28T12:13:23;1.30;99.90
34829;DHT22;21042;47.620;12.188;2023-02-28T12:16:16;1.40;99.90
34829;DHT22;21042;47.620;12.188;2023-02-28T12:22:38;1.40;99.90
34829;DHT22;21042;47.620;12.188;2023-02-28T12:25:18;1.60;99.90
34829;DHT22;21042;47.620;12.188;2023-02-28T12:27:48;1.60;99.90
34829;DHT22;21042;47.620;12.188;2023-02-28T12:30:24;1.70;99.90
34829;DHT22;21042;47.620;12.188;2023-02-28T12:33:06;1.60;99.90
34829;DHT22;21042;47.620;12.188;2023-02-28T12:35:38;1.40;99.90
34829;DHT22;21042;47.620;12.188;2023-02-28T12:38:34;1.40;99.90
34829;DHT22;21042;47.620;12.188;2023-02-28T12:41:14;1.50;99.90
34829;DHT22;21042;47.620;12.188;2023-02-28T12:43:45;1.40;99.90
34829;DHT22;21042;47.620;12.188;2023-02-28T12:46:28;1.40;99.90
34829;DHT22;21042;47.620;12.188;2023-02-28T12:48:57;1.10;99.90
34829;DHT22;21042;47.620;12.188;2023-02-28T12:51:25;1.50;99.90
34829;DHT22;21042;47.620;12.188;2023-02-28T12:53:58;1.50;99.90
34829;DHT22;21042;47.620;12.188;2023-02-28T12:56:42;1.50;99.90
34829;DHT22;21042;47.620;12.188;2023-02-28T13:07:31;1.60;99.90
34829;DHT22;21042;47.620;12.188;2023-02-28T13:10:04;1.60;99.90
34829;DHT22;21042;47.620;12.188;2023-02-28T13:12:34;1.60;99.90
34829;DHT22;21042;47.620;12.188;2023-02-28T13:15:05;1.60;99.90
34829;DHT22;21042;47.620;12.188;2023-02-28T13:17:32;1.70;99.90
34829;DHT22;21042;47.620;12.188;2023-02-28T13:19:59;1.60;99.90
34829;DHT22;21042;47.620;12.188;2023-02-28T13:22:37;1.60;99.90
34829;DHT22;21042;47.620;12.188;2023-02-28T13:27:51;1.70;99.90
34829;DHT22;21042;47.620;12.188;2023-02-28T13:33:34;1.60;99.90
34829;DHT22;21042;47.620;12.188;2023-02-28T13:38:56;1.50;99.90
34829;DHT22;21042;47.620;12.188;2023-02-28T13:44:05;1.50;99.90
34829;DHT22;21042;47.620;12.188;2023-02-28T13:46:35;1.50;99.90
34829;DHT22;21042;47.620;12.188;2023-02-28T13:55:00;1.40;99.90
34829;DHT22;21042;47.620;12.188;2023-02-28T14:01:08;1.50;99.90
34829;DHT22;21042;47.620;12.188;2023-02-28T14:06:33;1.50;99.90
34829;DHT22;21042;47.620;12.188;2023-02-28T14:09:37;1.60;99.90
34829;DHT22;21042;47.620;12.188;2023-02-28T14:20:57;1.70;99.90
34829;DHT22;21042;47.620;12.188;2023-02-28T14:23:46;1.70;99.90
34829;DHT22;21042;47.620;12.188;2023-02-28T14:29:18;1.60;99.90
34829;DHT22;21042;47.620;12.188;2023-02-28T14:31:58;1.70;99.90
34829;DHT22;21042;47.620;12.188;2023-02-28T14:34:45;1.70;99.90
34829;DHT22;21042;47.620;12.188;2023-02-28T14:37:25;1.80;99.90
34829;DHT22;21042;47.620;12.188;2023-02-28T14:39:53;1.80;99.90
34829;DHT22;21042;47.620;12.188;2023-02-28T14:44:55;1.90;99.90
34829;DHT22;21042;47.620;12.188;2023-02-28T14:47:31;1.90;99.90
34829;DHT22;21042;47.620;12.188;2023-02-28T14:49:59;2.00;99.90
34829;DHT22;21042;47.620;12.188;2023-02-28T14:52:28;2.00;99.90
34829;DHT22;21042;47.620;12.188;2023-02-28T14:54:59;2.10;99.90
34829;DHT22;21042;47.620;12.188;2023-02-28T14:57:32;2.10;99.90
34829;DHT22;21042;47.620;12.188;2023-02-28T15:00:04;2.00;99.90
34829;DHT22;21042;47.620;12.188;2023-02-28T15:02:38;2.10;99.90
34829;DHT22;21042;47.620;12.188;2023-02-28T15:07:47;2.10;99.90
34829;DHT22;21042;47.620;12.188;2023-02-28T15:10:26;2.00;99.90
34829;DHT22;21042;47.620;12.188;2023-02-28T15:12:57;2.00;99.90
34829;DHT22;21042;47.620;12.188;2023-02-28T15:18:46;1.90;99.90
34829;DHT22;21042;47.620;12.188;2023-02-28T15:24:05;1.60;99.90
34829;DHT22;21042;47.620;12.188;2023-02-28T15:26:36;1.60;99.90
34829;DHT22;21042;47.620;12.188;2023-02-28T15:29:12;1.50;99.90
34829;DHT22;21042;47.620;12.188;2023-02-28T15:31:44;1.50;99.90
34829;DHT22;21042;47.620;12.188;2023-02-28T15:34:41;1.50;99.90
34829;DHT22;21042;47.620;12.188;2023-02-28T15:40:29;2.00;99.90
34829;DHT22;21042;47.620;12.188;2023-02-28T15:43:12;1.60;99.90
34829;DHT22;21042;47.620;12.188;2023-02-28T15:45:55;1.60;99.90
34829;DHT22;21042;47.620;12.188;2023-02-28T15:48:34;1.60;99.90
34829;DHT22;21042;47.620;12.188;2023-02-28T15:51:08;1.60;99.90
34829;DHT22;21042;47.620;12.188;2023-02-28T15:53:39;1.60;99.90
34829;DHT22;21042;47.620;12.188;2023-02-28T15:58:44;1.60;99.90
34829;DHT22;21042;47.620;12.188;2023-02-28T16:01:26;1.60;99.90
34829;DHT22;21042;47.620;12.188;2023-02-28T16:03:59;1.60;99.90
34829;DHT22;21042;47.620;12.188;2023-02-28T16:06:35;1.50;99.90
34829;DHT22;21042;47.620;12.188;2023-02-28T16:09:04;1.50;99.90
34829;DHT22;21042;47.620;12.188;2023-02-28T16:11:39;1.40;99.90
34829;DHT22;21042;47.620;12.188;2023-02-28T16:14:17;1.40;99.90
34829;DHT22;21042;47.620;12.188;2023-02-28T16:16:48;1.30;99.90
34829;DHT22;21042;47.620;12.188;2023-02-28T16:19:15;1.30;99.90
34829;DHT22;21042;47.620;12.188;2023-02-28T16:21:42;1.30;99.90
34829;DHT22;21042;47.620;12.188;2023-02-28T16:24:08;1.20;99.90
34829;DHT22;21042;47.620;12.188;2023-02-28T16:26:36;1.30;99.90
34829;DHT22;21042;47.620;12.188;2023-02-28T16:29:03;1.30;99.90
34829;DHT22;21042;47.620;12.188;2023-02-28T16:31:32;1.30;99.90
34829;DHT22;21042;47.620;12.188;2023-02-28T16:34:01;1.30;99.90
34829;DHT22;21042;47.620;12.188;2023-02-28T16:36:29;1.20;99.90
34829;DHT22;21042;47.620;12.188;2023-02-28T16:38:56;1.20;99.90
34829;DHT22;21042;47.620;12.188;2023-02-28T16:41:25;1.10;99.90
34829;DHT22;21042;47.620;12.188;2023-02-28T16:43:55;1.10;99.90
34829;DHT22;21042;47.620;12.188;2023-02-28T16:46:44;1.10;99.90
34829;DHT22;21042;47.620;12.188;2023-02-28T16:49:12;1.10;99.90
34829;DHT22;21042;47.620;12.188;2023-02-28T16:51:39;1.10;99.90
34829;DHT22;21042;47.620;12.188;2023-02-28T16:54:06;1.00;99.90
34829;DHT22;21042;47.620;12.188;2023-02-28T16:56:33;1.00;99.90
34829;DHT22;21042;47.620;12.188;2023-02-28T16:59:01;1.00;99.90
34829;DHT22;21042;47.620;12.188;2023-02-28T17:01:28;0.90;99.90
34829;DHT22;21042;47.620;12.188;2023-02-28T17:03:56;0.90;99.90
34829;DHT22;21042;47.620;12.188;2023-02-28T17:06:25;0.80;99.90
34829;DHT22;21042;47.620;12.188;2023-02-28T17:08:55;0.80;99.90
34829;DHT22;21042;47.620;12.188;2023-02-28T17:11:22;0.60;99.90
34829;DHT22;21042;47.620;12.188;2023-02-28T17:13:48;0.60;99.90
34829;DHT22;21042;47.620;12.188;2023-02-28T17:16:22;0.60;99.90
34829;DHT22;21042;47.620;12.188;2023-02-28T17:18:50;0.50;99.90
34829;DHT22;21042;47.620;12.188;2023-02-28T17:21:17;0.40;99.90
34829;DHT22;21042;47.620;12.188;2023-02-28T17:23:44;0.40;99.90
34829;DHT22;21042;47.620;12.188;2023-02-28T17:26:15;0.40;99.90
34829;DHT22;21042;47.620;12.188;2023-02-28T17:28:43;0.40;99.90
34829;DHT22;21042;47.620;12.188;2023-02-28T17:31:10;0.30;99.90
34829;DHT22;21042;47.620;12.188;2023-02-28T17:33:37;0.30;99.90
34829;DHT22;21042;47.620;12.188;2023-02-28T17:36:04;0.30;99.90
34829;DHT22;21042;47.620;12.188;2023-02-28T17:38:31;0.30;99.90
34829;DHT22;21042;47.620;12.188;2023-02-28T17:40:58;0.30;99.90
34829;DHT22;21042;47.620;12.188;2023-02-28T17:43:26;0.20;99.90
34829;DHT22;21042;47.620;12.188;2023-02-28T17:45:53;0.30;99.90
34829;DHT22;21042;47.620;12.188;2023-02-28T17:48:20;0.30;99.90
34829;DHT22;21042;47.620;12.188;2023-02-28T17:50:47;0.30;99.90
34829;DHT22;21042;47.620;12.188;2023-02-28T17:53:14;0.20;99.90